sensor_id;sensor_type;location;lat;lon;timestamp;pressure;altitude;pressure_sealevel;temperature
73662;BMP280;61956;52.540;13.382;2022-12-10T00:01:53;60900.19;;;-0.82
73662;BMP280;61956;52.540;13.382;2022-12-10T00:04:22;61402.72;;;-0.79
73662;BMP280;61956;52.540;13.382;2022-12-10T00:06:51;60987.63;;;-0.83
73662;BMP280;61956;52.540;13.382;2022-12-10T00:09:20;61147.22;;;-0.81
73662;BMP280;61956;52.540;13.382;2022-12-10T00:11:50;61279.88;;;-0.82
73662;BMP280;61956;52.540;13.382;2022-12-10T00:14:21;61218.66;;;-0.83
73662;BMP280;61956;52.540;13.382;2022-12-10T00:16:50;60454.16;;;-0.87
73662;BMP280;61956;52.540;13.382;2022-12-10T00:19:20;59848.06;;;-0.91
73662;BMP280;61956;52.540;13.382;2022-12-10T00:21:49;59803.38;;;-0.91
73662;BMP280;61956;52.540;13.382;2022-12-10T00:24:18;60407.63;;;-0.89
73662;BMP280;61956;52.540;13.382;2022-12-10T00:26:47;59095.34;;;-0.97
73662;BMP280;61956;52.540;13.382;2022-12-10T00:29:16;58534.91;;;-1.01
73662;BMP280;61956;52.540;13.382;2022-12-10T00:31:48;58298.69;;;-1.01
73662;BMP280;61956;52.540;13.382;2022-12-10T00:34:17;58822.19;;;-0.99
73662;BMP280;61956;52.540;13.382;2022-12-10T00:36:47;59105.69;;;-0.99
73662;BMP280;61956;52.540;13.382;2022-12-10T00:39:19;59008.28;;;-0.99
73662;BMP280;61956;52.540;13.382;2022-12-10T00:41:49;58881.53;;;-1.00
73662;BMP280;61956;52.540;13.382;2022-12-10T00:44:19;59402.38;;;-0.96
73662;BMP280;61956;52.540;13.382;2022-12-10T00:46:51;60280.97;;;-0.93
73662;BMP280;61956;52.540;13.382;2022-12-10T00:49:20;59653.31;;;-0.96
73662;BMP280;61956;52.540;13.382;2022-12-10T00:51:50;59031.59;;;-1.01
73662;BMP280;61956;52.540;13.382;2022-12-10T00:54:19;58955.91;;;-1.01
73662;BMP280;61956;52.540;13.382;2022-12-10T00:56:48;58875.19;;;-1.02
73662;BMP280;61956;52.540;13.382;2022-12-10T00:59:18;58815.41;;;-1.01
73662;BMP280;61956;52.540;13.382;2022-12-10T01:01:50;58584.94;;;-1.04
73662;BMP280;61956;52.540;13.382;2022-12-10T01:04:19;57673.56;;;-1.11
73662;BMP280;61956;52.540;13.382;2022-12-10T01:06:50;57023.84;;;-1.15
73662;BMP280;61956;52.540;13.382;2022-12-10T01:09:23;56960.31;;;-1.16
73662;BMP280;61956;52.540;13.382;2022-12-10T01:11:57;56952.78;;;-1.16
73662;BMP280;61956;52.540;13.382;2022-12-10T01:14:31;57040.53;;;-1.16
73662;BMP280;61956;52.540;13.382;2022-12-10T01:17:04;56639.50;;;-1.19
73662;BMP280;61956;52.540;13.382;2022-12-10T01:19:35;56208.94;;;-1.21
73662;BMP280;61956;52.540;13.382;2022-12-10T01:22:04;57343.81;;;-1.16
73662;BMP280;61956;52.540;13.382;2022-12-10T01:24:35;56638.66;;;-1.20
73662;BMP280;61956;52.540;13.382;2022-12-10T01:27:05;56028.97;;;-1.24
73662;BMP280;61956;52.540;13.382;2022-12-10T01:29:34;55283.84;;;-1.29
73662;BMP280;61956;52.540;13.382;2022-12-10T01:32:06;54468.13;;;-1.34
73662;BMP280;61956;52.540;13.382;2022-12-10T01:34:38;54382.19;;;-1.35
73662;BMP280;61956;52.540;13.382;2022-12-10T01:37:07;53737.47;;;-1.40
73662;BMP280;61956;52.540;13.382;2022-12-10T01:39:37;53553.19;;;-1.42
73662;BMP280;61956;52.540;13.382;2022-12-10T01:42:10;53717.44;;;-1.40
73662;BMP280;61956;52.540;13.382;2022-12-10T01:45:05;53344.34;;;-1.44
73662;BMP280;61956;52.540;13.382;2022-12-10T01:47:41;53156.31;;;-1.44
73662;BMP280;61956;52.540;13.382;2022-12-10T01:50:10;53168.03;;;-1.45
73662;BMP280;61956;52.540;13.382;2022-12-10T01:52:39;52928.81;;;-1.47
73662;BMP280;61956;52.540;13.382;2022-12-10T01:55:38;52700.03;;;-1.49
73662;BMP280;61956;52.540;13.382;2022-12-10T01:58:12;52112.13;;;-1.53
73662;BMP280;61956;52.540;13.382;2022-12-10T02:01:03;51601.53;;;-1.57
73662;BMP280;61956;52.540;13.382;2022-12-10T02:03:50;51226.81;;;-1.60
73662;BMP280;61956;52.540;13.382;2022-12-10T02:06:43;51076.84;;;-1.60
73662;BMP280;61956;52.540;13.382;2022-12-10T02:09:21;51124.34;;;-1.60
73662;BMP280;61956;52.540;13.382;2022-12-10T02:12:11;50840.44;;;-1.62
73662;BMP280;61956;52.540;13.382;2022-12-10T02:14:52;50671.53;;;-1.64
73662;BMP280;61956;52.540;13.382;2022-12-10T02:17:31;50774.34;;;-1.63
73662;BMP280;61956;52.540;13.382;2022-12-10T02:20:12;50516.88;;;-1.67
73662;BMP280;61956;52.540;13.382;2022-12-10T02:22:48;50685.78;;;-1.65
73662;BMP280;61956;52.540;13.382;2022-12-10T02:25:28;51402.75;;;-1.62
73662;BMP280;61956;52.540;13.382;2022-12-10T02:28:07;51782.88;;;-1.58
73662;BMP280;61956;52.540;13.382;2022-12-10T02:30:46;51354.50;;;-1.63
73662;BMP280;61956;52.540;13.382;2022-12-10T02:33:18;52100.78;;;-1.58
73662;BMP280;61956;52.540;13.382;2022-12-10T02:35:51;52789.84;;;-1.53
73662;BMP280;61956;52.540;13.382;2022-12-10T02:38:27;53278.38;;;-1.52
73662;BMP280;61956;52.540;13.382;2022-12-10T02:41:02;53355.53;;;-1.52
73662;BMP280;61956;52.540;13.382;2022-12-10T02:43:35;53180.44;;;-1.52
73662;BMP280;61956;52.540;13.382;2022-12-10T02:46:08;53075.38;;;-1.52
73662;BMP280;61956;52.540;13.382;2022-12-10T02:48:39;53263.38;;;-1.52
73662;BMP280;61956;52.540;13.382;2022-12-10T02:51:09;52850.81;;;-1.55
73662;BMP280;61956;52.540;13.382;2022-12-10T02:53:41;51978.47;;;-1.61
73662;BMP280;61956;52.540;13.382;2022-12-10T02:56:16;52086.75;;;-1.60
73662;BMP280;61956;52.540;13.382;2022-12-10T02:58:59;52626.66;;;-1.57
73662;BMP280;61956;52.540;13.382;2022-12-10T03:01:53;52477.56;;;-1.59
73662;BMP280;61956;52.540;13.382;2022-12-10T03:04:30;53740.31;;;-1.50
73662;BMP280;61956;52.540;13.382;2022-12-10T03:07:10;53829.19;;;-1.51
73662;BMP280;61956;52.540;13.382;2022-12-10T03:09:47;53456.91;;;-1.54
73662;BMP280;61956;52.540;13.382;2022-12-10T03:12:22;53205.19;;;-1.56
73662;BMP280;61956;52.540;13.382;2022-12-10T03:14:58;53929.66;;;-1.51
73662;BMP280;61956;52.540;13.382;2022-12-10T03:17:32;54329.97;;;-1.47
73662;BMP280;61956;52.540;13.382;2022-12-10T03:20:03;55075.81;;;-1.44
73662;BMP280;61956;52.540;13.382;2022-12-10T03:22:38;55480.97;;;-1.42
73662;BMP280;61956;52.540;13.382;2022-12-10T03:25:14;57072.44;;;-1.32
73662;BMP280;61956;52.540;13.382;2022-12-10T03:27:48;57006.44;;;-1.33
73662;BMP280;61956;52.540;13.382;2022-12-10T03:30:20;56066.53;;;-1.39
73662;BMP280;61956;52.540;13.382;2022-12-10T03:32:52;55930.47;;;-1.40
73662;BMP280;61956;52.540;13.382;2022-12-10T03:35:22;55966.75;;;-1.39
73662;BMP280;61956;52.540;13.382;2022-12-10T03:37:53;56079.06;;;-1.39
73662;BMP280;61956;52.540;13.382;2022-12-10T03:40:24;55860.34;;;-1.40
73662;BMP280;61956;52.540;13.382;2022-12-10T03:42:54;55192.66;;;-1.45
73662;BMP280;61956;52.540;13.382;2022-12-10T03:45:23;55513.09;;;-1.42
73662;BMP280;61956;52.540;13.382;2022-12-10T03:47:55;55579.06;;;-1.44
73662;BMP280;61956;52.540;13.382;2022-12-10T03:50:25;55386.66;;;-1.44
73662;BMP280;61956;52.540;13.382;2022-12-10T03:52:54;55610.75;;;-1.42
73662;BMP280;61956;52.540;13.382;2022-12-10T03:55:26;55650.00;;;-1.43
73662;BMP280;61956;52.540;13.382;2022-12-10T03:57:55;55843.66;;;-1.42
73662;BMP280;61956;52.540;13.382;2022-12-10T04:00:24;56553.72;;;-1.38
73662;BMP280;61956;52.540;13.382;2022-12-10T04:02:56;57445.38;;;-1.32
73662;BMP280;61956;52.540;13.382;2022-12-10T04:05:26;58022.38;;;-1.29
73662;BMP280;61956;52.540;13.382;2022-12-10T04:07:55;58757.53;;;-1.25
73662;BMP280;61956;52.540;13.382;2022-12-10T04:10:24;59077.78;;;-1.23
73662;BMP280;61956;52.540;13.382;2022-12-10T04:12:54;59572.50;;;-1.19
73662;BMP280;61956;52.540;13.382;2022-12-10T04:15:38;59616.31;;;-1.21
73662;BMP280;61956;52.540;13.382;2022-12-10T04:18:28;60551.88;;;-1.13
73662;BMP280;61956;52.540;13.382;2022-12-10T04:20:57;61457.63;;;-1.08
73662;BMP280;61956;52.540;13.382;2022-12-10T04:23:39;62606.84;;;-1.00
73662;BMP280;61956;52.540;13.382;2022-12-10T04:26:20;62583.75;;;-1.01
73662;BMP280;61956;52.540;13.382;2022-12-10T04:29:02;62392.38;;;-1.01
73662;BMP280;61956;52.540;13.382;2022-12-10T04:31:32;62603.84;;;-1.01
73662;BMP280;61956;52.540;13.382;2022-12-10T04:34:04;62774.03;;;-0.99
73662;BMP280;61956;52.540;13.382;2022-12-10T04:36:33;63170.41;;;-0.97
73662;BMP280;61956;52.540;13.382;2022-12-10T04:39:03;63382.44;;;-0.96
73662;BMP280;61956;52.540;13.382;2022-12-10T04:41:32;63552.72;;;-0.94
73662;BMP280;61956;52.540;13.382;2022-12-10T04:44:02;63693.94;;;-0.93
73662;BMP280;61956;52.540;13.382;2022-12-10T04:46:31;64541.88;;;-0.87
73662;BMP280;61956;52.540;13.382;2022-12-10T04:49:00;65585.91;;;-0.81
73662;BMP280;61956;52.540;13.382;2022-12-10T04:51:33;66122.75;;;-0.78
73662;BMP280;61956;52.540;13.382;2022-12-10T04:54:03;67794.66;;;-0.67
73662;BMP280;61956;52.540;13.382;2022-12-10T04:56:33;67888.34;;;-0.67
73662;BMP280;61956;52.540;13.382;2022-12-10T04:59:03;67084.66;;;-0.70
73662;BMP280;61956;52.540;13.382;2022-12-10T05:01:33;66894.88;;;-0.71
73662;BMP280;61956;52.540;13.382;2022-12-10T05:04:07;67494.53;;;-0.68
73662;BMP280;61956;52.540;13.382;2022-12-10T05:06:38;68434.50;;;-0.62
73662;BMP280;61956;52.540;13.382;2022-12-10T05:09:07;68219.88;;;-0.62
73662;BMP280;61956;52.540;13.382;2022-12-10T05:11:39;68762.59;;;-0.59
73662;BMP280;61956;52.540;13.382;2022-12-10T05:14:11;69119.91;;;-0.57
73662;BMP280;61956;52.540;13.382;2022-12-10T05:16:41;69752.16;;;-0.52
73662;BMP280;61956;52.540;13.382;2022-12-10T05:19:13;69338.72;;;-0.55
73662;BMP280;61956;52.540;13.382;2022-12-10T05:21:45;68959.22;;;-0.56
73662;BMP280;61956;52.540;13.382;2022-12-10T05:24:26;68872.47;;;-0.57
73662;BMP280;61956;52.540;13.382;2022-12-10T05:26:56;69646.31;;;-0.52
73662;BMP280;61956;52.540;13.382;2022-12-10T05:29:26;69991.75;;;-0.50
73662;BMP280;61956;52.540;13.382;2022-12-10T05:31:55;69872.75;;;-0.50
73662;BMP280;61956;52.540;13.382;2022-12-10T05:34:27;70106.25;;;-0.49
73662;BMP280;61956;52.540;13.382;2022-12-10T05:36:56;71516.06;;;-0.39
73662;BMP280;61956;52.540;13.382;2022-12-10T05:39:26;70585.44;;;-0.46
73662;BMP280;61956;52.540;13.382;2022-12-10T05:41:55;70359.41;;;-0.48
73662;BMP280;61956;52.540;13.382;2022-12-10T05:44:24;69746.72;;;-0.50
73662;BMP280;61956;52.540;13.382;2022-12-10T05:46:53;70624.31;;;-0.45
73662;BMP280;61956;52.540;13.382;2022-12-10T05:49:22;71361.09;;;-0.40
73662;BMP280;61956;52.540;13.382;2022-12-10T05:51:54;71219.84;;;-0.40
73662;BMP280;61956;52.540;13.382;2022-12-10T05:54:24;71908.38;;;-0.35
73662;BMP280;61956;52.540;13.382;2022-12-10T05:56:54;72180.56;;;-0.33
73662;BMP280;61956;52.540;13.382;2022-12-10T05:59:23;73150.25;;;-0.28
73662;BMP280;61956;52.540;13.382;2022-12-10T06:01:53;72072.38;;;-0.35
73662;BMP280;61956;52.540;13.382;2022-12-10T06:04:22;71271.41;;;-0.39
73662;BMP280;61956;52.540;13.382;2022-12-10T06:06:54;71236.63;;;-0.38
73662;BMP280;61956;52.540;13.382;2022-12-10T06:09:23;70452.53;;;-0.43
73662;BMP280;61956;52.540;13.382;2022-12-10T06:11:53;70377.41;;;-0.43
73662;BMP280;61956;52.540;13.382;2022-12-10T06:14:22;70083.75;;;-0.46
73662;BMP280;61956;52.540;13.382;2022-12-10T06:16:51;70567.06;;;-0.42
73662;BMP280;61956;52.540;13.382;2022-12-10T06:19:20;71050.53;;;-0.38
73662;BMP280;61956;52.540;13.382;2022-12-10T06:21:50;69961.28;;;-0.45
73662;BMP280;61956;52.540;13.382;2022-12-10T06:24:21;69400.00;;;-0.49
73662;BMP280;61956;52.540;13.382;2022-12-10T06:26:51;69659.59;;;-0.49
73662;BMP280;61956;52.540;13.382;2022-12-10T06:29:20;68394.91;;;-0.56
73662;BMP280;61956;52.540;13.382;2022-12-10T06:31:49;68483.06;;;-0.56
73662;BMP280;61956;52.540;13.382;2022-12-10T06:34:18;68095.09;;;-0.59
73662;BMP280;61956;52.540;13.382;2022-12-10T06:36:47;68187.31;;;-0.57
73662;BMP280;61956;52.540;13.382;2022-12-10T06:39:17;67920.78;;;-0.59
73662;BMP280;61956;52.540;13.382;2022-12-10T06:41:49;67750.53;;;-0.61
73662;BMP280;61956;52.540;13.382;2022-12-10T06:44:18;67468.00;;;-0.61
73662;BMP280;61956;52.540;13.382;2022-12-10T06:46:47;67737.94;;;-0.61
73662;BMP280;61956;52.540;13.382;2022-12-10T06:49:16;68706.31;;;-0.55
73662;BMP280;61956;52.540;13.382;2022-12-10T06:51:47;68252.28;;;-0.58
73662;BMP280;61956;52.540;13.382;2022-12-10T06:54:16;68310.75;;;-0.57
73662;BMP280;61956;52.540;13.382;2022-12-10T06:56:48;67878.44;;;-0.61
73662;BMP280;61956;52.540;13.382;2022-12-10T06:59:17;67180.91;;;-0.64
73662;BMP280;61956;52.540;13.382;2022-12-10T07:01:47;67442.75;;;-0.64
73662;BMP280;61956;52.540;13.382;2022-12-10T07:04:16;67532.41;;;-0.62
73662;BMP280;61956;52.540;13.382;2022-12-10T07:06:45;66606.94;;;-0.69
73662;BMP280;61956;52.540;13.382;2022-12-10T07:09:15;66956.31;;;-0.67
73662;BMP280;61956;52.540;13.382;2022-12-10T07:11:45;66561.63;;;-0.69
73662;BMP280;61956;52.540;13.382;2022-12-10T07:14:17;66577.75;;;-0.68
73662;BMP280;61956;52.540;13.382;2022-12-10T07:16:48;66700.59;;;-0.69
73662;BMP280;61956;52.540;13.382;2022-12-10T07:19:17;66488.16;;;-0.70
73662;BMP280;61956;52.540;13.382;2022-12-10T07:21:46;66707.63;;;-0.69
73662;BMP280;61956;52.540;13.382;2022-12-10T07:24:18;65803.72;;;-0.75
73662;BMP280;61956;52.540;13.382;2022-12-10T07:26:50;66058.84;;;-0.74
73662;BMP280;61956;52.540;13.382;2022-12-10T07:29:20;67107.88;;;-0.67
73662;BMP280;61956;52.540;13.382;2022-12-10T07:31:52;66923.09;;;-0.68
73662;BMP280;61956;52.540;13.382;2022-12-10T07:34:24;66968.41;;;-0.68
73662;BMP280;61956;52.540;13.382;2022-12-10T07:36:53;66787.16;;;-0.70
73662;BMP280;61956;52.540;13.382;2022-12-10T07:39:23;66570.19;;;-0.71
73662;BMP280;61956;52.540;13.382;2022-12-10T07:41:55;66602.91;;;-0.71
73662;BMP280;61956;52.540;13.382;2022-12-10T07:44:27;67390.88;;;-0.66
73662;BMP280;61956;52.540;13.382;2022-12-10T07:46:56;67407.97;;;-0.66
73662;BMP280;61956;52.540;13.382;2022-12-10T07:49:26;67074.13;;;-0.68
73662;BMP280;61956;52.540;13.382;2022-12-10T07:51:57;66879.28;;;-0.69
73662;BMP280;61956;52.540;13.382;2022-12-10T07:54:26;67141.59;;;-0.68
73662;BMP280;61956;52.540;13.382;2022-12-10T07:56:58;66816.84;;;-0.71
73662;BMP280;61956;52.540;13.382;2022-12-10T07:59:28;67298.19;;;-0.68
73662;BMP280;61956;52.540;13.382;2022-12-10T08:01:57;67657.28;;;-0.63
73662;BMP280;61956;52.540;13.382;2022-12-10T08:04:27;67636.09;;;-0.65
73662;BMP280;61956;52.540;13.382;2022-12-10T08:06:58;67965.03;;;-0.63
73662;BMP280;61956;52.540;13.382;2022-12-10T08:09:27;68945.53;;;-0.57
73662;BMP280;61956;52.540;13.382;2022-12-10T08:11:59;67852.66;;;-0.65
73662;BMP280;61956;52.540;13.382;2022-12-10T08:14:28;68355.47;;;-0.60
73662;BMP280;61956;52.540;13.382;2022-12-10T08:16:57;68851.28;;;-0.58
73662;BMP280;61956;52.540;13.382;2022-12-10T08:19:26;68871.97;;;-0.58
73662;BMP280;61956;52.540;13.382;2022-12-10T08:21:55;68569.56;;;-0.60
73662;BMP280;61956;52.540;13.382;2022-12-10T08:24:24;69192.06;;;-0.55
73662;BMP280;61956;52.540;13.382;2022-12-10T08:26:54;69492.97;;;-0.54
73662;BMP280;61956;52.540;13.382;2022-12-10T08:29:25;70003.81;;;-0.50
73662;BMP280;61956;52.540;13.382;2022-12-10T08:31:55;70018.41;;;-0.51
73662;BMP280;61956;52.540;13.382;2022-12-10T08:34:24;70530.31;;;-0.48
73662;BMP280;61956;52.540;13.382;2022-12-10T08:36:53;71349.91;;;-0.41
73662;BMP280;61956;52.540;13.382;2022-12-10T08:39:22;71658.72;;;-0.40
73662;BMP280;61956;52.540;13.382;2022-12-10T08:41:52;73325.84;;;-0.29
73662;BMP280;61956;52.540;13.382;2022-12-10T08:44:21;74789.50;;;-0.21
73662;BMP280;61956;52.540;13.382;2022-12-10T08:46:53;73928.16;;;-0.26
73662;BMP280;61956;52.540;13.382;2022-12-10T08:49:22;73624.03;;;-0.27
73662;BMP280;61956;52.540;13.382;2022-12-10T08:51:52;74198.13;;;-0.24
73662;BMP280;61956;52.540;13.382;2022-12-10T08:54:21;72695.91;;;-0.33
73662;BMP280;61956;52.540;13.382;2022-12-10T08:56:50;72676.28;;;-0.32
73662;BMP280;61956;52.540;13.382;2022-12-10T08:59:19;71892.16;;;-0.36
73662;BMP280;61956;52.540;13.382;2022-12-10T09:01:53;72978.06;;;-0.29
73662;BMP280;61956;52.540;13.382;2022-12-10T09:04:22;73569.06;;;-0.26
73662;BMP280;61956;52.540;13.382;2022-12-10T09:06:52;74509.69;;;-0.20
73662;BMP280;61956;52.540;13.382;2022-12-10T09:09:21;74375.81;;;-0.20
73662;BMP280;61956;52.540;13.382;2022-12-10T09:11:50;73979.81;;;-0.25
73662;BMP280;61956;52.540;13.382;2022-12-10T09:14:19;75539.84;;;-0.14
73662;BMP280;61956;52.540;13.382;2022-12-10T09:16:49;75471.41;;;-0.12
73662;BMP280;61956;52.540;13.382;2022-12-10T09:19:21;75697.47;;;-0.11
73662;BMP280;61956;52.540;13.382;2022-12-10T09:21:50;76849.69;;;-0.05
73662;BMP280;61956;52.540;13.382;2022-12-10T09:24:20;77168.16;;;-0.03
73662;BMP280;61956;52.540;13.382;2022-12-10T09:26:51;76776.19;;;-0.03
73662;BMP280;61956;52.540;13.382;2022-12-10T09:29:21;75965.22;;;-0.09
73662;BMP280;61956;52.540;13.382;2022-12-10T09:31:51;76009.34;;;-0.08
73662;BMP280;61956;52.540;13.382;2022-12-10T09:34:23;76911.41;;;-0.02
73662;BMP280;61956;52.540;13.382;2022-12-10T09:36:52;78661.34;;;0.08
73662;BMP280;61956;52.540;13.382;2022-12-10T09:39:21;78252.13;;;0.07
73662;BMP280;61956;52.540;13.382;2022-12-10T09:42:07;77054.81;;;-0.01
73662;BMP280;61956;52.540;13.382;2022-12-10T09:44:54;76456.44;;;-0.04
73662;BMP280;61956;52.540;13.382;2022-12-10T09:47:35;76454.50;;;-0.04
73662;BMP280;61956;52.540;13.382;2022-12-10T09:50:18;75918.16;;;-0.06
73662;BMP280;61956;52.540;13.382;2022-12-10T09:52:51;76820.25;;;0.00
73662;BMP280;61956;52.540;13.382;2022-12-10T09:55:30;77780.34;;;0.06
73662;BMP280;61956;52.540;13.382;2022-12-10T09:58:05;78515.78;;;0.09
73662;BMP280;61956;52.540;13.382;2022-12-10T10:00:44;78652.34;;;0.11
73662;BMP280;61956;52.540;13.382;2022-12-10T10:03:16;78370.25;;;0.10
73662;BMP280;61956;52.540;13.382;2022-12-10T10:05:50;78639.00;;;0.13
73662;BMP280;61956;52.540;13.382;2022-12-10T10:08:26;79143.84;;;0.16
73662;BMP280;61956;52.540;13.382;2022-12-10T10:11:00;79375.44;;;0.17
73662;BMP280;61956;52.540;13.382;2022-12-10T10:13:34;79484.84;;;0.19
73662;BMP280;61956;52.540;13.382;2022-12-10T10:16:23;79891.84;;;0.21
73662;BMP280;61956;52.540;13.382;2022-12-10T10:18:58;79598.09;;;0.21
73662;BMP280;61956;52.540;13.382;2022-12-10T10:21:34;79058.31;;;0.18
73662;BMP280;61956;52.540;13.382;2022-12-10T10:24:18;79070.34;;;0.18
73662;BMP280;61956;52.540;13.382;2022-12-10T10:26:51;79668.41;;;0.20
73662;BMP280;61956;52.540;13.382;2022-12-10T10:29:25;79771.53;;;0.22
73662;BMP280;61956;52.540;13.382;2022-12-10T10:32:16;78814.09;;;0.17
73662;BMP280;61956;52.540;13.382;2022-12-10T10:34:53;78276.41;;;0.14
73662;BMP280;61956;52.540;13.382;2022-12-10T10:37:28;77398.69;;;0.10
73662;BMP280;61956;52.540;13.382;2022-12-10T10:39:59;77956.38;;;0.13
73662;BMP280;61956;52.540;13.382;2022-12-10T10:42:35;78943.06;;;0.19
73662;BMP280;61956;52.540;13.382;2022-12-10T10:45:32;78367.41;;;0.16
73662;BMP280;61956;52.540;13.382;2022-12-10T10:48:12;77663.00;;;0.11
73662;BMP280;61956;52.540;13.382;2022-12-10T10:50:45;76093.06;;;0.03
73662;BMP280;61956;52.540;13.382;2022-12-10T10:53:30;76559.31;;;0.06
73662;BMP280;61956;52.540;13.382;2022-12-10T10:56:06;76788.06;;;0.07
73662;BMP280;61956;52.540;13.382;2022-12-10T10:58:49;76372.94;;;0.05
73662;BMP280;61956;52.540;13.382;2022-12-10T11:01:25;76668.03;;;0.06
73662;BMP280;61956;52.540;13.382;2022-12-10T11:03:58;77592.03;;;0.13
73662;BMP280;61956;52.540;13.382;2022-12-10T12:05:36;77236.97;;;0.17
73662;BMP280;61956;52.540;13.382;2022-12-10T12:08:20;78185.00;;;0.20
73662;BMP280;61956;52.540;13.382;2022-12-10T12:11:05;76379.44;;;0.10
73662;BMP280;61956;52.540;13.382;2022-12-10T12:13:51;76273.25;;;0.10
73662;BMP280;61956;52.540;13.382;2022-12-10T12:16:31;76152.03;;;0.08
73662;BMP280;61956;52.540;13.382;2022-12-10T12:19:10;76445.78;;;0.11
73662;BMP280;61956;52.540;13.382;2022-12-10T12:21:47;78183.06;;;0.21
73662;BMP280;61956;52.540;13.382;2022-12-10T12:24:21;78024.94;;;0.20
73662;BMP280;61956;52.540;13.382;2022-12-10T12:27:00;77421.66;;;0.17
73662;BMP280;61956;52.540;13.382;2022-12-10T12:29:48;75601.06;;;0.06
73662;BMP280;61956;52.540;13.382;2022-12-10T12:32:29;75508.91;;;0.05
73662;BMP280;61956;52.540;13.382;2022-12-10T12:35:06;75339.56;;;0.05
73662;BMP280;61956;52.540;13.382;2022-12-10T12:37:46;76195.59;;;0.09
73662;BMP280;61956;52.540;13.382;2022-12-10T12:40:27;77152.44;;;0.14
73662;BMP280;61956;52.540;13.382;2022-12-10T12:43:02;77811.78;;;0.19
73662;BMP280;61956;52.540;13.382;2022-12-10T12:45:39;76611.91;;;0.12
73662;BMP280;61956;52.540;13.382;2022-12-10T12:48:16;76012.97;;;0.08
73662;BMP280;61956;52.540;13.382;2022-12-10T12:50:54;75445.72;;;0.05
73662;BMP280;61956;52.540;13.382;2022-12-10T12:53:30;75104.13;;;0.03
73662;BMP280;61956;52.540;13.382;2022-12-10T12:56:04;75292.31;;;0.04
73662;BMP280;61956;52.540;13.382;2022-12-10T12:58:40;74370.63;;;-0.03
73662;BMP280;61956;52.540;13.382;2022-12-10T13:01:21;73750.84;;;-0.06
73662;BMP280;61956;52.540;13.382;2022-12-10T13:03:57;74111.81;;;-0.04
73662;BMP280;61956;52.540;13.382;2022-12-10T13:06:28;73847.38;;;-0.05
73662;BMP280;61956;52.540;13.382;2022-12-10T13:12:26;72811.72;;;-0.12
73662;BMP280;61956;52.540;13.382;2022-12-10T13:15:11;72762.63;;;-0.13
73662;BMP280;61956;52.540;13.382;2022-12-10T13:18:03;73158.72;;;-0.11
73662;BMP280;61956;52.540;13.382;2022-12-10T13:20:48;73783.09;;;-0.06
73662;BMP280;61956;52.540;13.382;2022-12-10T13:23:33;74486.84;;;-0.03
73662;BMP280;61956;52.540;13.382;2022-12-10T13:26:33;75997.97;;;0.06
73662;BMP280;61956;52.540;13.382;2022-12-10T13:29:22;75577.34;;;0.03
73662;BMP280;61956;52.540;13.382;2022-12-10T13:31:56;73671.09;;;-0.09
73662;BMP280;61956;52.540;13.382;2022-12-10T13:34:34;73493.75;;;-0.10
73662;BMP280;61956;52.540;13.382;2022-12-10T13:37:17;72919.16;;;-0.13
73662;BMP280;61956;52.540;13.382;2022-12-10T13:40:13;73499.38;;;-0.09
73662;BMP280;61956;52.540;13.382;2022-12-10T13:43:19;73293.13;;;-0.11
73662;BMP280;61956;52.540;13.382;2022-12-10T13:46:21;73402.28;;;-0.10
73662;BMP280;61956;52.540;13.382;2022-12-10T13:48:54;73440.16;;;-0.10
73662;BMP280;61956;52.540;13.382;2022-12-10T13:51:36;73015.09;;;-0.13
73662;BMP280;61956;52.540;13.382;2022-12-10T13:54:30;72494.78;;;-0.16
73662;BMP280;61956;52.540;13.382;2022-12-10T13:57:49;71658.38;;;-0.22
73662;BMP280;61956;52.540;13.382;2022-12-10T14:00:38;72352.31;;;-0.17
73662;BMP280;61956;52.540;13.382;2022-12-10T14:03:40;72849.28;;;-0.15
73662;BMP280;61956;52.540;13.382;2022-12-10T14:06:25;72438.97;;;-0.18
73662;BMP280;61956;52.540;13.382;2022-12-10T14:08:58;72677.94;;;-0.17
73662;BMP280;61956;52.540;13.382;2022-12-10T14:11:32;72667.84;;;-0.17
73662;BMP280;61956;52.540;13.382;2022-12-10T14:14:11;71837.00;;;-0.22
73662;BMP280;61956;52.540;13.382;2022-12-10T14:16:45;71431.94;;;-0.26
73662;BMP280;61956;52.540;13.382;2022-12-10T14:19:15;71579.38;;;-0.25
73662;BMP280;61956;52.540;13.382;2022-12-10T14:21:45;71526.94;;;-0.24
73662;BMP280;61956;52.540;13.382;2022-12-10T14:24:29;71864.75;;;-0.22
73662;BMP280;61956;52.540;13.382;2022-12-10T14:27:09;71745.03;;;-0.23
73662;BMP280;61956;52.540;13.382;2022-12-10T14:29:48;72658.03;;;-0.19
73662;BMP280;61956;52.540;13.382;2022-12-10T14:32:20;72947.19;;;-0.15
73662;BMP280;61956;52.540;13.382;2022-12-10T14:34:58;72891.38;;;-0.18
73662;BMP280;61956;52.540;13.382;2022-12-10T14:37:31;72920.28;;;-0.17
73662;BMP280;61956;52.540;13.382;2022-12-10T14:40:05;72651.00;;;-0.18
73662;BMP280;61956;52.540;13.382;2022-12-10T14:42:38;72591.84;;;-0.19
73662;BMP280;61956;52.540;13.382;2022-12-10T14:45:15;72500.97;;;-0.19
73662;BMP280;61956;52.540;13.382;2022-12-10T14:47:47;72576.13;;;-0.20
73662;BMP280;61956;52.540;13.382;2022-12-10T14:50:17;73126.44;;;-0.15
73662;BMP280;61956;52.540;13.382;2022-12-10T14:52:50;72888.84;;;-0.18
73662;BMP280;61956;52.540;13.382;2022-12-10T14:55:21;73042.56;;;-0.16
73662;BMP280;61956;52.540;13.382;2022-12-10T14:57:55;73034.44;;;-0.16
73662;BMP280;61956;52.540;13.382;2022-12-10T15:00:30;73555.44;;;-0.13
73662;BMP280;61956;52.540;13.382;2022-12-10T15:03:24;74092.56;;;-0.12
73662;BMP280;61956;52.540;13.382;2022-12-10T15:05:56;73664.59;;;-0.13
73662;BMP280;61956;52.540;13.382;2022-12-10T15:08:27;73481.09;;;-0.14
73662;BMP280;61956;52.540;13.382;2022-12-10T15:10:59;73460.31;;;-0.15
73662;BMP280;61956;52.540;13.382;2022-12-10T15:13:34;73860.22;;;-0.12
73662;BMP280;61956;52.540;13.382;2022-12-10T15:16:17;74190.25;;;-0.10
73662;BMP280;61956;52.540;13.382;2022-12-10T15:18:47;74705.38;;;-0.08
73662;BMP280;61956;52.540;13.382;2022-12-10T15:21:21;74824.69;;;-0.08
73662;BMP280;61956;52.540;13.382;2022-12-10T15:24:09;74932.56;;;-0.06
73662;BMP280;61956;52.540;13.382;2022-12-10T15:26:46;75773.56;;;0.00
73662;BMP280;61956;52.540;13.382;2022-12-10T15:29:34;74852.28;;;-0.06
73662;BMP280;61956;52.540;13.382;2022-12-10T15:32:11;72939.34;;;-0.18
73662;BMP280;61956;52.540;13.382;2022-12-10T15:34:47;73229.97;;;-0.15
73662;BMP280;61956;52.540;13.382;2022-12-10T15:37:21;72845.38;;;-0.18
73662;BMP280;61956;52.540;13.382;2022-12-10T15:39:54;72601.94;;;-0.19
73662;BMP280;61956;52.540;13.382;2022-12-10T15:42:39;71559.53;;;-0.27